createdAt,value
2019-04-29T00:00:39.068Z,1016.1
2019-04-29T00:01:53.303Z,1016.1
2019-04-29T00:03:07.463Z,1016.1
2019-04-29T00:04:21.678Z,1016.1
2019-04-29T00:05:36.014Z,1016.1
2019-04-29T00:06:50.077Z,1016.1
2019-04-29T00:08:04.328Z,1016.1
2019-04-29T00:09:18.661Z,1016.2
2019-04-29T00:10:32.795Z,1016.2
2019-04-29T00:11:47.015Z,1016.2
2019-04-29T00:13:01.167Z,1016.2
2019-04-29T00:14:15.383Z,1016.2
2019-04-29T00:15:29.759Z,1016.1
2019-04-29T00:16:43.866Z,1016.1
2019-04-29T00:17:58.062Z,1016.2
2019-04-29T00:19:12.285Z,1016.2
2019-04-29T00:20:26.484Z,1016.1
2019-04-29T00:21:40.799Z,1016.2
2019-04-29T00:22:54.955Z,1016.2
2019-04-29T00:24:09.145Z,1016.2
2019-04-29T00:25:23.422Z,1016.2
2019-04-29T00:26:37.554Z,1016.2
2019-04-29T00:27:52.025Z,1016.2
2019-04-29T00:29:05.983Z,1016.2
2019-04-29T00:30:20.251Z,1016.2
2019-04-29T00:31:34.407Z,1016.2
2019-04-29T00:32:48.681Z,1016.2
2019-04-29T00:34:02.831Z,1016.2
2019-04-29T00:35:17.033Z,1016.2
2019-04-29T00:36:31.415Z,1016.2
2019-04-29T00:37:45.461Z,1016.2
2019-04-29T00:38:59.675Z,1016.2
2019-04-29T00:40:13.888Z,1016.2
2019-04-29T00:41:28.092Z,1016.1
2019-04-29T00:42:43.867Z,1016.2
2019-04-29T00:43:56.613Z,1016.2
2019-04-29T00:45:10.791Z,1016.2
2019-04-29T00:46:24.956Z,1016.1
2019-04-29T00:47:39.247Z,1016.2
2019-04-29T00:48:53.424Z,1016.2
2019-04-29T00:50:07.659Z,1016.2
2019-04-29T00:51:21.991Z,1016.2
2019-04-29T00:52:36.095Z,1016.2
2019-04-29T00:53:50.426Z,1016.2
2019-04-29T00:55:04.487Z,1016.2
2019-04-29T00:56:18.711Z,1016.2
2019-04-29T00:57:32.925Z,1016.2
2019-04-29T00:58:47.150Z,1016.3
2019-04-29T01:00:01.557Z,1016.2
2019-04-29T01:01:15.616Z,1016.2
2019-04-29T01:02:29.813Z,1016.2
2019-04-29T01:03:44.037Z,1016.2
2019-04-29T01:06:12.475Z,1016.2
2019-04-29T01:07:26.673Z,1016.3
2019-04-29T01:08:40.901Z,1016.2
2019-04-29T01:09:55.113Z,1016.2
2019-04-29T01:11:09.335Z,1016.2
2019-04-29T01:12:23.541Z,1016.2
2019-04-29T01:13:37.796Z,1016.2
2019-04-29T01:14:52.066Z,1016.2
2019-04-29T01:16:06.330Z,1016.2
2019-04-29T01:17:20.457Z,1016.2
2019-04-29T01:18:34.640Z,1016.2
2019-04-29T01:19:49.058Z,1016.1
2019-04-29T01:21:03.081Z,1016.2
2019-04-29T01:22:17.402Z,1016.3
2019-04-29T01:23:31.540Z,1016.2
2019-04-29T01:24:45.863Z,1016.2
2019-04-29T01:26:01.049Z,1016.3
2019-04-29T01:27:14.178Z,1016.2
2019-04-29T01:28:28.412Z,1016.2
2019-04-29T01:29:42.626Z,1016.2
2019-04-29T01:30:57.008Z,1016.3
2019-04-29T01:32:11.084Z,1016.3
2019-04-29T01:33:25.276Z,1016.3
2019-04-29T01:34:39.532Z,1016.3
2019-04-29T01:35:53.733Z,1016.2
2019-04-29T01:37:07.942Z,1016.2
2019-04-29T01:38:22.178Z,1016.2
2019-04-29T01:39:36.416Z,1016.3
2019-04-29T01:40:51.549Z,1016.3
2019-04-29T01:42:04.861Z,1016.2
2019-04-29T01:43:19.066Z,1016.1
2019-04-29T01:44:33.266Z,1016.2
2019-04-29T01:45:47.480Z,1016.2
2019-04-29T01:47:01.710Z,1016.3
2019-04-29T01:48:15.928Z,1016.2
2019-04-29T01:49:30.140Z,1016.2
2019-04-29T01:50:44.735Z,1016.3
2019-04-29T01:51:58.595Z,1016.3
2019-04-29T01:53:12.807Z,1016.3
2019-04-29T01:54:27.130Z,1016.3
2019-04-29T01:55:41.341Z,1016.4
2019-04-29T01:56:55.460Z,1016.4
2019-04-29T01:58:09.709Z,1016.4
2019-04-29T01:59:23.923Z,1016.4
2019-04-29T02:00:38.132Z,1016.4
2019-04-29T02:01:52.434Z,1016.4
2019-04-29T02:03:06.596Z,1016.4
2019-04-29T02:04:20.792Z,1016.5
2019-04-29T02:05:35.009Z,1016.4
2019-04-29T02:06:49.249Z,1016.5
2019-04-29T02:08:05.038Z,1016.5
2019-04-29T02:10:31.917Z,1016.4
2019-04-29T02:11:46.158Z,1016.5
2019-04-29T02:13:04.683Z,1016.5
2019-04-29T02:14:14.604Z,1016.5
2019-04-29T02:15:28.806Z,1016.5
2019-04-29T02:16:43.020Z,1016.5
2019-04-29T02:17:57.269Z,1016.5
2019-04-29T02:19:11.504Z,1016.5
2019-04-29T02:20:25.725Z,1016.6
2019-04-29T02:21:39.917Z,1016.6
2019-04-29T02:22:54.138Z,1016.6
2019-04-29T02:24:08.360Z,1016.6
2019-04-29T02:26:36.906Z,1016.6
2019-04-29T02:27:51.040Z,1016.6
2019-04-29T02:29:05.343Z,1016.6
2019-04-29T02:30:19.524Z,1016.5
2019-04-29T02:31:33.716Z,1016.6
2019-04-29T02:32:47.986Z,1016.6
2019-04-29T02:35:16.576Z,1016.6
2019-04-29T02:36:30.713Z,1016.6
2019-04-29T02:37:44.899Z,1016.6
2019-04-29T02:38:59.100Z,1016.6
2019-04-29T02:40:13.323Z,1016.6
2019-04-29T02:41:27.548Z,1016.5
2019-04-29T02:42:41.762Z,1016.5
2019-04-29T02:45:13.496Z,1016.6
2019-04-29T02:46:26.867Z,1016.6
2019-04-29T02:47:39.561Z,1016.6
2019-04-29T02:48:53.192Z,1016.6
2019-04-29T02:50:07.163Z,1016.6
2019-04-29T02:51:21.384Z,1016.6
2019-04-29T02:52:35.718Z,1016.5
2019-04-29T02:53:49.865Z,1016.5
2019-04-29T02:55:03.968Z,1016.6
2019-04-29T02:56:18.887Z,1016.5
2019-04-29T02:57:32.453Z,1016.6
2019-04-29T02:58:46.675Z,1016.6
2019-04-29T03:00:00.856Z,1016.6
2019-04-29T03:01:15.103Z,1016.6
2019-04-29T03:02:29.258Z,1016.6
2019-04-29T03:03:43.468Z,1016.6
2019-04-29T03:04:58.100Z,1016.6
2019-04-29T03:06:11.902Z,1016.6
2019-04-29T03:07:26.098Z,1016.6
2019-04-29T03:08:40.362Z,1016.6
2019-04-29T03:09:54.590Z,1016.6
2019-04-29T03:11:08.788Z,1016.6
2019-04-29T03:12:23.088Z,1016.6
2019-04-29T03:13:37.281Z,1016.6
2019-04-29T03:14:51.676Z,1016.6
2019-04-29T03:16:05.721Z,1016.5
2019-04-29T03:17:19.983Z,1016.5
2019-04-29T03:18:34.184Z,1016.5
2019-04-29T03:19:48.440Z,1016.6
2019-04-29T03:21:02.650Z,1016.6
2019-04-29T03:22:16.849Z,1016.5
2019-04-29T03:23:31.056Z,1016.5
2019-04-29T03:24:45.292Z,1016.5
2019-04-29T03:25:59.597Z,1016.5
2019-04-29T03:27:13.821Z,1016.5
2019-04-29T03:28:27.970Z,1016.6
2019-04-29T03:29:42.194Z,1016.6
2019-04-29T03:30:56.386Z,1016.5
2019-04-29T03:32:10.589Z,1016.5
2019-04-29T03:33:24.817Z,1016.6
2019-04-29T03:34:39.028Z,1016.6
2019-04-29T03:35:53.263Z,1016.6
2019-04-29T03:37:07.465Z,1016.6
2019-04-29T03:38:21.763Z,1016.5
2019-04-29T03:39:35.885Z,1016.6
2019-04-29T03:40:50.242Z,1016.6
2019-04-29T03:42:04.357Z,1016.6
2019-04-29T03:43:18.601Z,1016.6
2019-04-29T03:44:32.787Z,1016.6
2019-04-29T03:45:47.043Z,1016.5
2019-04-29T03:47:01.274Z,1016.6
2019-04-29T03:48:15.443Z,1016.6
2019-04-29T03:49:29.682Z,1016.5
2019-04-29T03:50:43.917Z,1016.6
2019-04-29T03:51:58.389Z,1016.5
2019-04-29T03:53:14.659Z,1016.5
2019-04-29T03:54:26.533Z,1016.5
2019-04-29T03:55:40.977Z,1016.5
2019-04-29T03:56:54.962Z,1016.5
2019-04-29T03:58:09.254Z,1016.6
2019-04-29T03:59:23.518Z,1016.5
2019-04-29T04:00:37.666Z,1016.6
2019-04-29T04:01:51.878Z,1016.6
2019-04-29T04:03:10.326Z,1016.6
2019-04-29T04:04:23.591Z,1016.6
2019-04-29T04:05:34.664Z,1016.6
2019-04-29T04:06:48.746Z,1016.6
2019-04-29T04:08:02.987Z,1016.6
2019-04-29T04:09:17.285Z,1016.6
2019-04-29T04:10:31.451Z,1016.7
2019-04-29T04:11:45.651Z,1016.6
2019-04-29T04:12:59.875Z,1016.7
2019-04-29T04:14:14.170Z,1016.6
2019-04-29T04:15:28.322Z,1016.7
2019-04-29T04:16:42.575Z,1016.6
2019-04-29T04:17:56.767Z,1016.6
2019-04-29T04:19:11.018Z,1016.7
2019-04-29T04:20:25.261Z,1016.7
2019-04-29T04:21:39.505Z,1016.7
2019-04-29T04:22:53.774Z,1016.7
2019-04-29T04:24:08.114Z,1016.7
2019-04-29T04:26:36.397Z,1016.8
2019-04-29T04:27:50.773Z,1016.7
2019-04-29T04:29:04.792Z,1016.7
2019-04-29T04:30:19.075Z,1016.8
2019-04-29T04:31:34.441Z,1016.8
2019-04-29T04:32:47.459Z,1016.8
2019-04-29T04:34:01.654Z,1016.7
2019-04-29T04:35:15.902Z,1016.8
2019-04-29T04:36:30.120Z,1016.8
2019-04-29T04:37:44.351Z,1016.8
2019-04-29T04:38:58.515Z,1016.7
2019-04-29T04:40:12.731Z,1016.7
2019-04-29T04:41:26.939Z,1016.7
2019-04-29T04:42:41.168Z,1016.7
2019-04-29T04:43:55.463Z,1016.7
2019-04-29T04:45:09.696Z,1016.8
2019-04-29T04:46:23.799Z,1016.8
2019-04-29T04:47:38.083Z,1016.8
2019-04-29T04:48:52.219Z,1016.8
2019-04-29T04:51:20.781Z,1016.9
2019-04-29T04:52:34.859Z,1016.8
2019-04-29T04:53:49.056Z,1016.8
2019-04-29T04:55:03.267Z,1016.8
2019-04-29T04:56:17.541Z,1016.8
2019-04-29T04:57:31.718Z,1016.8
2019-04-29T04:58:46.019Z,1016.8
2019-04-29T05:00:00.129Z,1016.8
2019-04-29T05:01:14.360Z,1016.8
2019-04-29T05:02:28.553Z,1016.8
2019-04-29T05:03:42.761Z,1016.8
2019-04-29T05:04:57.004Z,1016.9
2019-04-29T05:06:11.255Z,1016.9
2019-04-29T05:07:25.537Z,1016.9
2019-04-29T05:08:39.677Z,1017
2019-04-29T05:09:53.843Z,1016.9
2019-04-29T05:11:08.062Z,1016.9
2019-04-29T05:12:22.275Z,1016.9
2019-04-29T05:13:36.547Z,1017
2019-04-29T05:14:50.729Z,1017
2019-04-29T05:16:05.096Z,1017
2019-04-29T05:17:19.134Z,1016.9
2019-04-29T05:18:33.538Z,1016.9
2019-04-29T05:19:47.560Z,1016.9
2019-04-29T05:21:01.952Z,1016.9
2019-04-29T05:22:16.046Z,1016.9
2019-04-29T05:23:30.179Z,1017
2019-04-29T05:24:44.384Z,1016.9
2019-04-29T05:25:58.598Z,1017
2019-04-29T05:28:27.114Z,1017
2019-04-29T05:29:41.201Z,1017.1
2019-04-29T05:30:55.439Z,1017
2019-04-29T05:32:09.593Z,1017.1
2019-04-29T05:33:23.788Z,1017
2019-04-29T05:34:38.023Z,1017
2019-04-29T05:35:52.250Z,1016.9
2019-04-29T05:37:06.440Z,1016.9
2019-04-29T05:38:20.607Z,1016.9
2019-04-29T05:39:35.223Z,1016.9
2019-04-29T05:40:49.533Z,1017
2019-04-29T05:42:03.311Z,1017
2019-04-29T05:43:17.415Z,1017
2019-04-29T05:44:31.789Z,1017
2019-04-29T05:45:45.844Z,1017
2019-04-29T05:46:59.976Z,1016.9
2019-04-29T05:48:14.159Z,1017
2019-04-29T05:49:28.399Z,1017
2019-04-29T05:50:42.644Z,1017
2019-04-29T05:53:10.943Z,1017
2019-04-29T05:54:25.172Z,1017.1
2019-04-29T05:55:39.510Z,1017.1
2019-04-29T05:56:53.538Z,1017.1
2019-04-29T05:58:07.721Z,1017
2019-04-29T05:59:21.893Z,1017.1
2019-04-29T06:00:36.086Z,1017.1
2019-04-29T06:01:50.317Z,1017.1
2019-04-29T06:03:04.468Z,1017
2019-04-29T06:04:19.261Z,1017.1
2019-04-29T06:05:32.794Z,1017.1
2019-04-29T06:06:46.958Z,1017
2019-04-29T06:08:01.156Z,1017.1
2019-04-29T06:09:15.293Z,1017.1
2019-04-29T06:10:29.489Z,1017.1
2019-04-29T06:11:43.739Z,1017.1
2019-04-29T06:12:57.790Z,1017.1
2019-04-29T06:14:12.139Z,1017.1
2019-04-29T06:15:26.138Z,1017.1
2019-04-29T06:16:40.286Z,1017.1
2019-04-29T06:17:54.451Z,1017.2
2019-04-29T06:19:12.654Z,1017.2
2019-04-29T06:20:25.577Z,1017.1
2019-04-29T06:21:39.708Z,1017.1
2019-04-29T06:22:54.950Z,1017.2
2019-04-29T06:24:07.637Z,1017.1
2019-04-29T06:25:19.558Z,1017.1
2019-04-29T06:26:33.585Z,1017.1
2019-04-29T06:27:47.728Z,1017.1
2019-04-29T06:30:16.068Z,1017.1
2019-04-29T06:31:34.709Z,1017.2
2019-04-29T06:32:44.479Z,1017.1
2019-04-29T06:33:58.493Z,1017.2
2019-04-29T06:35:14.864Z,1017.1
2019-04-29T06:36:28.660Z,1017.1
2019-04-29T06:37:40.976Z,1017.2
2019-04-29T06:38:55.151Z,1017.2
2019-04-29T06:40:09.284Z,1017.1
2019-04-29T06:41:23.808Z,1017.1
2019-04-29T06:42:37.634Z,1017.1
2019-04-29T06:43:51.758Z,1017.1
2019-04-29T06:45:05.848Z,1017.1
2019-04-29T06:46:19.915Z,1017.1
2019-04-29T06:47:34.019Z,1017.2
2019-04-29T06:50:02.292Z,1017.2
2019-04-29T06:51:16.414Z,1017.2
2019-04-29T06:52:30.537Z,1017.2
2019-04-29T06:53:44.661Z,1017.2
2019-04-29T06:54:58.821Z,1017.2
2019-04-29T06:56:13.007Z,1017.3
2019-04-29T06:57:27.151Z,1017.2
2019-04-29T06:58:41.238Z,1017.3
2019-04-29T06:59:55.352Z,1017.3
2019-04-29T07:01:09.475Z,1017.2
2019-04-29T07:02:23.749Z,1017.2
2019-04-29T07:03:37.779Z,1017.2
2019-04-29T07:04:52.299Z,1017.2
2019-04-29T07:06:06.034Z,1017.2
2019-04-29T07:07:20.261Z,1017.1
2019-04-29T07:08:34.299Z,1017.1
2019-04-29T07:09:48.441Z,1017.1
2019-04-29T07:11:02.577Z,1017.2
2019-04-29T07:12:16.814Z,1017.1
2019-04-29T07:13:30.885Z,1017.2
2019-04-29T07:14:45.102Z,1017.2
2019-04-29T07:15:59.127Z,1017.2
2019-04-29T07:17:13.399Z,1017.2
2019-04-29T07:19:41.576Z,1017.2
2019-04-29T07:20:55.742Z,1017.2
2019-04-29T07:22:09.854Z,1017.2
2019-04-29T07:23:23.980Z,1017.1
2019-04-29T07:24:38.182Z,1017.2
2019-04-29T07:25:57.234Z,1017.2
2019-04-29T07:27:06.342Z,1017.2
2019-04-29T07:29:34.683Z,1017.2
2019-04-29T07:32:02.803Z,1017.2
2019-04-29T07:33:16.919Z,1017.2
2019-04-29T07:35:45.202Z,1017.2
2019-04-29T07:36:59.771Z,1017.2
2019-04-29T07:38:13.418Z,1017.2
2019-04-29T07:39:27.577Z,1017.2
2019-04-29T07:40:41.577Z,1017.2
2019-04-29T07:41:55.697Z,1017.3
2019-04-29T07:43:09.798Z,1017.3
2019-04-29T07:44:23.889Z,1017.4
2019-04-29T07:45:38.078Z,1017.3
2019-04-29T07:46:52.246Z,1017.3
2019-04-29T07:48:06.193Z,1017.3
2019-04-29T07:49:20.367Z,1017.3
2019-04-29T07:50:34.398Z,1017.3
2019-04-29T07:51:48.506Z,1017.2
2019-04-29T07:53:02.564Z,1017.3
2019-04-29T07:54:19.863Z,1017.3
2019-04-29T07:55:30.818Z,1017.4
2019-04-29T07:56:45.143Z,1017.3
2019-04-29T07:57:59.080Z,1017.3
2019-04-29T07:59:13.756Z,1017.3
2019-04-29T08:00:27.175Z,1017.3
2019-04-29T08:01:41.359Z,1017.4
2019-04-29T08:04:09.472Z,1017.5
2019-04-29T08:05:23.450Z,1017.5
2019-04-29T08:06:37.633Z,1017.4
2019-04-29T08:07:51.695Z,1017.4
2019-04-29T08:09:05.742Z,1017.4
2019-04-29T08:10:19.868Z,1017.4
2019-04-29T08:11:33.894Z,1017.5
2019-04-29T08:12:48.107Z,1017.4
2019-04-29T08:14:02.168Z,1017.4
2019-04-29T08:15:16.145Z,1017.4
2019-04-29T08:16:30.257Z,1017.3
2019-04-29T08:17:44.336Z,1017.3
2019-04-29T08:18:58.417Z,1017.4
2019-04-29T08:20:12.558Z,1017.4
2019-04-29T08:21:26.602Z,1017.5
2019-04-29T08:22:40.785Z,1017.4
2019-04-29T08:23:54.780Z,1017.4
2019-04-29T08:25:09.018Z,1017.4
2019-04-29T08:26:25.092Z,1017.3
2019-04-29T08:27:37.019Z,1017.4
2019-04-29T08:28:51.124Z,1017.3
2019-04-29T08:30:05.452Z,1017.3
2019-04-29T08:31:19.247Z,1017.4
2019-04-29T08:32:33.448Z,1017.3
2019-04-29T08:33:47.404Z,1017.3
2019-04-29T08:35:01.479Z,1017.3
2019-04-29T08:36:15.687Z,1017.3
2019-04-29T08:38:43.654Z,1017.2
2019-04-29T08:39:57.843Z,1017.3
2019-04-29T08:42:25.862Z,1017.3
2019-04-29T08:43:40.186Z,1017.4
2019-04-29T08:44:53.982Z,1017.3
2019-04-29T08:46:08.160Z,1017.3
2019-04-29T08:47:22.130Z,1017.3
2019-04-29T08:48:36.264Z,1017.4
2019-04-29T08:49:50.333Z,1017.3
2019-04-29T08:51:04.446Z,1017.4
2019-04-29T08:52:18.401Z,1017.3
2019-04-29T08:53:32.484Z,1017.3
2019-04-29T08:54:46.534Z,1017.4
2019-04-29T08:56:00.631Z,1017.5
2019-04-29T08:57:14.586Z,1017.4
2019-04-29T08:58:28.651Z,1017.5
2019-04-29T08:59:42.732Z,1017.5
2019-04-29T09:00:56.769Z,1017.4
2019-04-29T09:02:11.013Z,1017.4
2019-04-29T09:03:25.214Z,1017.6
2019-04-29T09:04:39.096Z,1017.6
2019-04-29T09:05:52.986Z,1017.6
2019-04-29T09:07:07.089Z,1017.3
2019-04-29T09:08:21.068Z,1017.2
2019-04-29T09:10:49.178Z,1017.2
2019-04-29T09:12:03.340Z,1017.4
2019-04-29T09:13:17.403Z,1017.5
2019-04-29T09:14:31.406Z,1017.6
2019-04-29T09:15:45.436Z,1017.5
2019-04-29T09:16:59.581Z,1017.4
2019-04-29T09:18:13.585Z,1017.3
2019-04-29T09:19:27.726Z,1017.4
2019-04-29T09:20:41.710Z,1017.4
2019-04-29T09:21:55.766Z,1017.3
2019-04-29T09:23:09.838Z,1017.3
2019-04-29T09:24:23.975Z,1017.3
2019-04-29T09:26:52.051Z,1017.3
2019-04-29T09:28:06.127Z,1017.3
2019-04-29T09:29:20.236Z,1017.3
2019-04-29T09:30:34.315Z,1017.2
2019-04-29T09:31:48.361Z,1017.3
2019-04-29T09:33:02.644Z,1017.3
2019-04-29T09:34:16.703Z,1017.3
2019-04-29T09:35:30.726Z,1017.2
2019-04-29T09:36:44.720Z,1017.3
2019-04-29T09:37:58.813Z,1017.3
2019-04-29T09:39:12.879Z,1017.3
2019-04-29T09:40:26.962Z,1017.3
2019-04-29T09:41:41.575Z,1017.4
2019-04-29T09:44:09.193Z,1017.4
2019-04-29T09:45:23.254Z,1017.5
2019-04-29T09:47:51.631Z,1017.3
2019-04-29T09:49:05.778Z,1017.2
2019-04-29T09:50:19.576Z,1017.2
2019-04-29T09:51:33.600Z,1017.1
2019-04-29T09:52:47.754Z,1017.2
2019-04-29T09:54:01.778Z,1017.1
2019-04-29T09:55:15.792Z,1017.2
2019-04-29T09:56:29.889Z,1017.2
2019-04-29T09:57:43.938Z,1017.2
2019-04-29T09:58:58.016Z,1017
2019-04-29T10:00:12.087Z,1017.1
2019-04-29T10:01:26.182Z,1017.1
2019-04-29T10:02:40.326Z,1017.2
2019-04-29T10:03:54.348Z,1017.1
2019-04-29T10:07:36.761Z,1017.2
2019-04-29T10:08:50.652Z,1017.2
2019-04-29T10:10:05.018Z,1017.2
2019-04-29T10:11:19.076Z,1017.1
2019-04-29T10:12:33.378Z,1017
2019-04-29T10:13:47.024Z,1017
2019-04-29T10:15:01.129Z,1017
2019-04-29T10:16:15.138Z,1016.9
2019-04-29T10:17:29.232Z,1017
2019-04-29T10:18:43.312Z,1016.9
2019-04-29T10:19:57.511Z,1016.9
2019-04-29T10:21:11.522Z,1016.9
2019-04-29T10:22:25.622Z,1016.9
2019-04-29T10:23:39.769Z,1017
2019-04-29T10:24:53.825Z,1017
2019-04-29T10:26:08.609Z,1017
2019-04-29T10:27:22.048Z,1017
2019-04-29T10:28:36.220Z,1016.9
2019-04-29T10:29:50.365Z,1016.9
2019-04-29T10:31:04.869Z,1016.9
2019-04-29T10:32:18.391Z,1016.9
2019-04-29T10:33:32.488Z,1016.8
2019-04-29T10:34:46.728Z,1016.9
2019-04-29T10:37:14.849Z,1016.8
2019-04-29T10:38:29.072Z,1016.9
2019-04-29T10:40:57.137Z,1016.8
2019-04-29T10:42:11.158Z,1016.8
2019-04-29T10:43:25.242Z,1016.8
2019-04-29T10:44:39.391Z,1016.8
2019-04-29T10:45:53.446Z,1016.7
2019-04-29T10:48:21.674Z,1016.8
2019-04-29T10:49:35.757Z,1016.8
2019-04-29T10:50:50.027Z,1016.8
2019-04-29T10:52:03.965Z,1016.8
2019-04-29T10:53:18.011Z,1016.7
2019-04-29T10:54:32.220Z,1016.7
2019-04-29T10:55:47.097Z,1016.7
2019-04-29T10:57:00.440Z,1016.7
2019-04-29T10:58:14.441Z,1016.8
2019-04-29T10:59:28.433Z,1016.6
2019-04-29T11:00:42.661Z,1016.6
2019-04-29T11:03:10.755Z,1016.6
2019-04-29T11:04:24.729Z,1016.6
2019-04-29T11:05:38.790Z,1016.7
2019-04-29T11:06:52.966Z,1016.6
2019-04-29T11:08:07.298Z,1016.6
2019-04-29T11:09:21.256Z,1016.6
2019-04-29T11:10:36.099Z,1016.6
2019-04-29T11:11:50.621Z,1016.6
2019-04-29T11:13:04.276Z,1016.6
2019-04-29T11:14:18.743Z,1016.5
2019-04-29T11:15:31.589Z,1016.6
2019-04-29T11:16:45.622Z,1016.5
2019-04-29T11:17:59.681Z,1016.5
2019-04-29T11:19:13.806Z,1016.5
2019-04-29T11:20:27.824Z,1016.5
2019-04-29T11:21:41.940Z,1016.5
2019-04-29T11:22:55.994Z,1016.6
2019-04-29T11:24:10.360Z,1016.6
2019-04-29T11:26:38.244Z,1016.7
2019-04-29T11:27:52.404Z,1016.6
2019-04-29T11:29:06.460Z,1016.5
2019-04-29T11:30:20.482Z,1016.5
2019-04-29T11:31:34.628Z,1016.4
2019-04-29T11:32:48.715Z,1016.4
2019-04-29T11:34:02.701Z,1016.4
2019-04-29T11:35:16.750Z,1016.7
2019-04-29T11:36:30.866Z,1016.7
2019-04-29T11:37:44.871Z,1016.3
2019-04-29T11:38:59.034Z,1016.3
2019-04-29T11:40:13.011Z,1016.3
2019-04-29T11:41:27.220Z,1016.3
2019-04-29T11:42:41.321Z,1016.4
2019-04-29T11:43:55.303Z,1016.2
2019-04-29T11:45:09.666Z,1016.2
2019-04-29T11:46:23.600Z,1016.3
2019-04-29T11:47:37.656Z,1016.4
2019-04-29T11:48:51.665Z,1016.4
2019-04-29T11:50:05.669Z,1016.4
2019-04-29T11:51:19.711Z,1016.3
2019-04-29T11:52:33.753Z,1016.4
2019-04-29T11:53:47.857Z,1016.2
2019-04-29T11:55:01.908Z,1016.2
2019-04-29T11:56:16.010Z,1016.4
2019-04-29T11:57:30.070Z,1016.4
2019-04-29T11:58:44.058Z,1016.3
2019-04-29T11:59:58.132Z,1016.3
2019-04-29T12:01:12.197Z,1016.3
2019-04-29T12:02:26.362Z,1016.3
2019-04-29T12:03:40.455Z,1016.5
2019-04-29T12:04:54.457Z,1016.3
2019-04-29T12:06:09.835Z,1016.2
2019-04-29T12:07:22.776Z,1016.4
2019-04-29T12:08:36.705Z,1016.1
2019-04-29T12:09:50.887Z,1016
2019-04-29T12:11:04.774Z,1016
2019-04-29T12:12:18.861Z,1015.9
2019-04-29T12:13:32.961Z,1016
2019-04-29T12:14:47.029Z,1016.1
2019-04-29T12:16:01.164Z,1016.2
2019-04-29T12:17:15.209Z,1016.1
2019-04-29T12:18:29.290Z,1016.1
2019-04-29T12:19:43.374Z,1016.1
2019-04-29T12:20:57.439Z,1016.2
2019-04-29T12:23:25.678Z,1016.2
2019-04-29T12:24:39.666Z,1016.2
2019-04-29T12:25:55.097Z,1016.2
2019-04-29T12:27:07.796Z,1016.2
2019-04-29T12:28:22.123Z,1016.3
2019-04-29T12:29:35.995Z,1016.4
2019-04-29T12:30:50.002Z,1016.3
2019-04-29T12:32:04.030Z,1016.4
2019-04-29T12:33:18.154Z,1016.3
2019-04-29T12:34:32.289Z,1015.9
2019-04-29T12:35:46.242Z,1015.9
2019-04-29T12:37:00.371Z,1015.9
2019-04-29T12:38:14.386Z,1015.9
2019-04-29T12:39:28.361Z,1016
2019-04-29T12:40:42.485Z,1016.2
2019-04-29T12:41:56.559Z,1015.8
2019-04-29T12:43:10.682Z,1015.8
2019-04-29T12:44:24.740Z,1016
2019-04-29T12:45:38.696Z,1015.9
2019-04-29T12:46:52.796Z,1015.8
2019-04-29T12:48:06.889Z,1015.7
2019-04-29T12:49:21.015Z,1015.8
2019-04-29T12:50:35.009Z,1015.9
2019-04-29T12:51:49.098Z,1015.9
2019-04-29T12:53:03.209Z,1015.9
2019-04-29T12:54:20.078Z,1016
2019-04-29T12:55:32.171Z,1015.9
2019-04-29T12:56:45.373Z,1015.8
2019-04-29T12:57:59.447Z,1015.8
2019-04-29T12:59:13.535Z,1015.8
2019-04-29T13:00:27.683Z,1015.7
2019-04-29T13:01:41.710Z,1015.7
2019-04-29T13:02:55.781Z,1015.8
2019-04-29T13:04:09.903Z,1015.7
2019-04-29T13:05:24.080Z,1015.7
2019-04-29T13:06:38.117Z,1015.7
2019-04-29T13:07:52.196Z,1015.7
2019-04-29T13:09:06.183Z,1015.7
2019-04-29T13:10:20.466Z,1015.6
2019-04-29T13:11:34.383Z,1015.7
2019-04-29T13:12:48.482Z,1015.7
2019-04-29T13:14:02.621Z,1015.5
2019-04-29T13:15:16.716Z,1015.6
2019-04-29T13:16:30.807Z,1015.5
2019-04-29T13:17:44.870Z,1015.5
2019-04-29T13:18:58.999Z,1015.5
2019-04-29T13:20:13.083Z,1015.4
2019-04-29T13:21:27.388Z,1015.5
2019-04-29T13:22:41.315Z,1015.4
2019-04-29T13:23:55.365Z,1015.4
2019-04-29T13:25:09.443Z,1015.5
2019-04-29T13:26:23.568Z,1015.5
2019-04-29T13:27:37.713Z,1015.5
2019-04-29T13:28:51.835Z,1015.4
2019-04-29T13:30:06.067Z,1015.5
2019-04-29T13:31:20.061Z,1015.5
2019-04-29T13:32:34.211Z,1015.5
2019-04-29T13:33:50.005Z,1015.5
2019-04-29T13:35:03.586Z,1015.5
2019-04-29T13:36:16.393Z,1015.4
2019-04-29T13:37:30.557Z,1015.4
2019-04-29T13:38:44.687Z,1015.3
2019-04-29T13:39:58.738Z,1015.4
2019-04-29T13:41:12.872Z,1015.4
2019-04-29T13:42:27.883Z,1015.4
2019-04-29T13:43:41.031Z,1015.4
2019-04-29T13:44:55.162Z,1015.4
2019-04-29T13:46:09.248Z,1015.4
2019-04-29T13:47:23.396Z,1015.4
2019-04-29T13:48:37.512Z,1015.4
2019-04-29T13:49:51.726Z,1015.4
2019-04-29T13:51:05.738Z,1015.4
2019-04-29T13:53:34.028Z,1015.3
2019-04-29T13:54:48.141Z,1015.4
2019-04-29T13:56:02.316Z,1015.4
2019-04-29T13:57:16.414Z,1015.5
2019-04-29T13:58:30.507Z,1015.5
2019-04-29T13:59:44.803Z,1015.4
2019-04-29T14:00:58.794Z,1015.5
2019-04-29T14:02:12.934Z,1015.4
2019-04-29T14:03:30.346Z,1015.5
2019-04-29T14:04:41.340Z,1015.5
2019-04-29T14:05:55.635Z,1015.4
2019-04-29T14:07:09.482Z,1015.4
2019-04-29T14:08:23.638Z,1015.4
2019-04-29T14:09:37.858Z,1015.4
2019-04-29T14:10:52.229Z,1015.4
2019-04-29T14:12:06.171Z,1015.4
2019-04-29T14:13:20.368Z,1015.3
2019-04-29T14:14:34.478Z,1015.4
2019-04-29T14:15:48.606Z,1015.3
2019-04-29T14:17:02.820Z,1015.4
2019-04-29T14:18:16.790Z,1015.3
2019-04-29T14:19:31.081Z,1015.3
2019-04-29T14:20:45.085Z,1015.3
2019-04-29T14:21:59.378Z,1015.3
2019-04-29T14:23:13.440Z,1015.2
2019-04-29T14:24:27.530Z,1015.3
2019-04-29T14:25:41.986Z,1015.4
2019-04-29T14:26:55.923Z,1015.3
2019-04-29T14:28:10.079Z,1015.3
2019-04-29T14:29:24.066Z,1015.3
2019-04-29T14:30:38.519Z,1015.3
2019-04-29T14:31:52.363Z,1015.3
2019-04-29T14:33:06.527Z,1015.3
2019-04-29T14:34:20.793Z,1015.4
2019-04-29T14:35:34.874Z,1015.4
2019-04-29T14:36:48.924Z,1015.3
2019-04-29T14:38:03.032Z,1015.3
2019-04-29T14:39:17.260Z,1015.3
2019-04-29T14:40:31.496Z,1015.3
2019-04-29T14:41:45.461Z,1015.3
2019-04-29T14:42:59.623Z,1015.3
2019-04-29T14:44:13.764Z,1015.3
2019-04-29T14:45:27.906Z,1015.3
2019-04-29T14:46:42.157Z,1015.3
2019-04-29T14:47:56.318Z,1015.2
2019-04-29T14:49:10.364Z,1015.3
2019-04-29T14:50:24.604Z,1015.3
2019-04-29T14:52:52.803Z,1015.3
2019-04-29T14:54:07.150Z,1015.3
2019-04-29T14:55:21.611Z,1015.3
2019-04-29T14:57:49.587Z,1015.4
2019-04-29T14:59:03.805Z,1015.3
2019-04-29T15:00:17.753Z,1015.4
2019-04-29T15:01:31.971Z,1015.4
2019-04-29T15:02:49.584Z,1015.3
2019-04-29T15:04:04.174Z,1015.4
2019-04-29T15:05:18.980Z,1015.3
2019-04-29T15:06:28.549Z,1015.3
2019-04-29T15:08:56.896Z,1015.4
2019-04-29T15:10:10.974Z,1015.3
2019-04-29T15:11:25.122Z,1015.4
2019-04-29T15:12:39.319Z,1015.3
2019-04-29T15:13:53.615Z,1015.4
2019-04-29T15:15:07.606Z,1015.4
2019-04-29T15:16:21.834Z,1015.3
2019-04-29T15:17:35.898Z,1015.3
2019-04-29T15:18:51.316Z,1015.3
2019-04-29T15:20:04.225Z,1015.3
2019-04-29T15:21:18.356Z,1015.3
2019-04-29T15:22:32.498Z,1015.3
2019-04-29T15:23:46.780Z,1015.3
2019-04-29T15:25:00.900Z,1015.3
2019-04-29T15:26:14.950Z,1015.3
2019-04-29T15:27:29.201Z,1015.3
2019-04-29T15:28:43.348Z,1015.3
2019-04-29T15:29:57.511Z,1015.3
2019-04-29T15:31:11.542Z,1015.3
2019-04-29T15:32:25.694Z,1015.3
2019-04-29T15:33:39.842Z,1015.3
2019-04-29T15:34:54.006Z,1015.3
2019-04-29T15:36:08.185Z,1015.3
2019-04-29T15:37:22.406Z,1015.3
2019-04-29T15:38:36.490Z,1015.4
2019-04-29T15:39:50.766Z,1015.4
2019-04-29T15:41:04.806Z,1015.3
2019-04-29T15:42:19.026Z,1015.3
2019-04-29T15:43:33.173Z,1015.4
2019-04-29T15:44:47.597Z,1015.3
2019-04-29T15:46:01.447Z,1015.4
2019-04-29T15:47:15.595Z,1015.4
2019-04-29T15:48:29.767Z,1015.4
2019-04-29T15:49:44.098Z,1015.3
2019-04-29T15:50:58.193Z,1015.4
2019-04-29T15:52:12.265Z,1015.3
2019-04-29T15:53:26.490Z,1015.4
2019-04-29T15:54:40.593Z,1015.4
2019-04-29T15:55:54.845Z,1015.4
2019-04-29T15:57:08.907Z,1015.4
2019-04-29T15:58:23.096Z,1015.3
2019-04-29T15:59:37.315Z,1015.4
2019-04-29T16:00:51.435Z,1015.4
2019-04-29T16:02:05.612Z,1015.4
2019-04-29T16:03:19.748Z,1015.4
2019-04-29T16:04:33.932Z,1015.3
2019-04-29T16:05:48.032Z,1015.3
2019-04-29T16:07:02.196Z,1015.2
2019-04-29T16:08:16.368Z,1015.3
2019-04-29T16:09:34.937Z,1015.3